createdAt,value
2018-03-21T00:00:26.850Z,1019.65
2018-03-21T00:01:36.820Z,1019.64
2018-03-21T00:02:46.803Z,1019.65
2018-03-21T00:03:56.508Z,1019.68
2018-03-21T00:05:06.465Z,1019.7
2018-03-21T00:06:16.427Z,1019.73
2018-03-21T00:07:26.135Z,1019.74
2018-03-21T00:08:35.831Z,1019.76
2018-03-21T00:09:45.532Z,1019.74
2018-03-21T00:10:55.235Z,1019.78
2018-03-21T00:12:04.943Z,1019.77
2018-03-21T00:13:15.169Z,1019.82
2018-03-21T00:14:25.126Z,1019.81
2018-03-21T00:15:34.309Z,1019.79
2018-03-21T00:16:44.015Z,1019.84
2018-03-21T00:17:53.462Z,1019.84
2018-03-21T00:19:03.175Z,1019.77
2018-03-21T00:20:12.645Z,1019.83
2018-03-21T00:21:22.098Z,1019.82
2018-03-21T00:22:32.078Z,1019.82
2018-03-21T00:23:41.520Z,1019.83
2018-03-21T00:24:51.218Z,1019.84
2018-03-21T00:26:00.674Z,1019.84
2018-03-21T00:27:10.419Z,1019.86
2018-03-21T00:28:20.370Z,1019.88
2018-03-21T00:29:30.322Z,1019.83
2018-03-21T00:30:39.506Z,1019.86
2018-03-21T00:31:48.697Z,1019.92
2018-03-21T00:32:58.661Z,1019.91
2018-03-21T00:34:08.617Z,1019.92
2018-03-21T00:35:18.627Z,1019.91
2018-03-21T00:36:28.321Z,1019.94
2018-03-21T00:37:37.802Z,1019.98
2018-03-21T00:38:47.296Z,1019.94
2018-03-21T00:39:57.001Z,1019.93
2018-03-21T00:41:06.945Z,1020
2018-03-21T00:42:16.670Z,1020
2018-03-21T00:43:26.413Z,1020.01
2018-03-21T00:44:36.388Z,1020.03
2018-03-21T00:45:46.363Z,1020.02
2018-03-21T00:46:56.334Z,1020.05
2018-03-21T00:48:06.308Z,1020.06
2018-03-21T00:49:16.271Z,1020.06
2018-03-21T00:50:26.231Z,1019.99
2018-03-21T00:51:36.198Z,1020.04
2018-03-21T00:52:45.897Z,1020.05
2018-03-21T00:53:55.589Z,1020.02
2018-03-21T00:55:05.555Z,1020.07
2018-03-21T00:56:15.514Z,1020.03
2018-03-21T00:57:25.470Z,1020.06
2018-03-21T00:58:35.423Z,1020.04
2018-03-21T00:59:45.115Z,1020.04
2018-03-21T01:00:55.068Z,1020.09
2018-03-21T01:02:04.767Z,1020.06
2018-03-21T01:03:14.719Z,1020.08
2018-03-21T01:04:24.677Z,1020.12
2018-03-21T01:05:34.652Z,1020.17
2018-03-21T01:06:44.613Z,1020.15
2018-03-21T01:07:54.596Z,1020.14
2018-03-21T01:09:04.293Z,1020.13
2018-03-21T01:10:13.986Z,1020.18
2018-03-21T01:11:23.944Z,1020.17
2018-03-21T01:12:33.398Z,1020.19
2018-03-21T01:13:43.096Z,1020.23
2018-03-21T01:14:52.795Z,1020.21
2018-03-21T01:16:02.756Z,1020.27
2018-03-21T01:17:12.726Z,1020.22
2018-03-21T01:18:22.679Z,1020.24
2018-03-21T01:19:32.124Z,1020.25
2018-03-21T01:20:41.816Z,1020.28
2018-03-21T01:21:51.506Z,1020.23
2018-03-21T01:23:01.206Z,1020.24
2018-03-21T01:24:10.920Z,1020.24
2018-03-21T01:25:20.616Z,1020.29
2018-03-21T01:26:30.846Z,1020.25
2018-03-21T01:27:40.541Z,1020.26
2018-03-21T01:28:50.234Z,1020.25
2018-03-21T01:30:00.187Z,1020.28
2018-03-21T01:31:10.142Z,1020.28
2018-03-21T01:32:19.843Z,1020.29
2018-03-21T01:33:29.813Z,1020.3
2018-03-21T01:34:39.509Z,1020.3
2018-03-21T01:35:48.956Z,1020.27
2018-03-21T01:36:58.920Z,1020.29
2018-03-21T01:38:08.882Z,1020.33
2018-03-21T01:39:18.327Z,1020.25
2018-03-21T01:40:27.759Z,1020.31
2018-03-21T01:41:37.453Z,1020.31
2018-03-21T01:42:47.152Z,1020.34
2018-03-21T01:43:56.589Z,1020.32
2018-03-21T01:45:06.550Z,1020.32
2018-03-21T01:46:16.341Z,1020.36
2018-03-21T01:47:26.038Z,1020.38
2018-03-21T01:48:35.750Z,1020.39
2018-03-21T01:49:45.466Z,1020.35
2018-03-21T01:50:55.422Z,1020.43
2018-03-21T01:52:05.388Z,1020.38
2018-03-21T01:53:15.091Z,1020.43
2018-03-21T01:54:24.782Z,1020.41
2018-03-21T01:55:33.965Z,1020.45
2018-03-21T01:56:43.666Z,1020.47
2018-03-21T01:57:53.359Z,1020.46
2018-03-21T01:59:02.800Z,1020.47
2018-03-21T02:00:12.765Z,1020.49
2018-03-21T02:01:22.718Z,1020.47
2018-03-21T02:02:32.150Z,1020.49
2018-03-21T02:03:41.064Z,1020.48
2018-03-21T02:04:51.019Z,1020.52
2018-03-21T02:06:00.717Z,1020.49
2018-03-21T02:07:10.428Z,1020.55
2018-03-21T02:08:20.128Z,1020.5
2018-03-21T02:09:29.561Z,1020.56
2018-03-21T02:10:39.263Z,1020.52
2018-03-21T02:11:48.963Z,1020.55
2018-03-21T02:12:58.927Z,1020.54
2018-03-21T02:14:08.378Z,1020.57
2018-03-21T02:15:18.323Z,1020.59
2018-03-21T02:16:28.033Z,1020.57
2018-03-21T02:17:37.204Z,1020.61
2018-03-21T02:18:46.648Z,1020.56
2018-03-21T02:19:56.590Z,1020.55
2018-03-21T02:21:06.557Z,1020.55
2018-03-21T02:22:16.252Z,1020.53
2018-03-21T02:23:26.216Z,1020.56
2018-03-21T02:24:35.926Z,1020.53
2018-03-21T02:25:45.617Z,1020.51
2018-03-21T02:26:55.583Z,1020.54
2018-03-21T02:28:05.279Z,1020.55
2018-03-21T02:29:14.817Z,1020.53
2018-03-21T02:30:24.519Z,1020.53
2018-03-21T02:31:34.224Z,1020.59
2018-03-21T02:32:44.213Z,1020.52
2018-03-21T02:33:53.926Z,1020.52
2018-03-21T02:35:03.653Z,1020.57
2018-03-21T02:36:13.615Z,1020.51
2018-03-21T02:37:23.334Z,1020.55
2018-03-21T02:38:33.073Z,1020.51
2018-03-21T02:39:43.044Z,1020.57
2018-03-21T02:40:52.752Z,1020.55
2018-03-21T02:42:02.940Z,1020.59
2018-03-21T02:43:12.908Z,1020.52
2018-03-21T02:44:22.621Z,1020.54
2018-03-21T02:45:32.598Z,1020.57
2018-03-21T02:46:42.310Z,1020.57
2018-03-21T02:47:52.286Z,1020.55
2018-03-21T02:49:01.992Z,1020.55
2018-03-21T02:50:11.960Z,1020.57
2018-03-21T02:51:21.924Z,1020.56
2018-03-21T02:52:31.885Z,1020.57
2018-03-21T02:53:41.859Z,1020.57
2018-03-21T02:54:51.799Z,1020.58
2018-03-21T02:56:01.780Z,1020.58
2018-03-21T02:57:11.744Z,1020.56
2018-03-21T02:58:21.708Z,1020.53
2018-03-21T02:59:31.749Z,1020.54
2018-03-21T03:00:41.467Z,1020.58
2018-03-21T03:01:51.446Z,1020.52
2018-03-21T03:03:01.406Z,1020.59
2018-03-21T03:04:10.581Z,1020.6
2018-03-21T03:05:19.759Z,1020.58
2018-03-21T03:06:29.750Z,1020.58
2018-03-21T03:07:39.709Z,1020.55
2018-03-21T03:08:49.401Z,1020.61
2018-03-21T03:09:59.353Z,1020.55
2018-03-21T03:11:09.045Z,1020.6
2018-03-21T03:12:18.482Z,1020.57
2018-03-21T03:13:28.434Z,1020.59
2018-03-21T03:14:38.137Z,1020.59
2018-03-21T03:15:47.854Z,1020.59
2018-03-21T03:16:57.286Z,1020.59
2018-03-21T03:18:06.977Z,1020.6
2018-03-21T03:19:16.677Z,1020.6
2018-03-21T03:20:26.374Z,1020.61
2018-03-21T03:21:35.805Z,1020.55
2018-03-21T03:22:45.493Z,1020.57
2018-03-21T03:23:55.459Z,1020.6
2018-03-21T03:25:04.902Z,1020.58
2018-03-21T03:26:14.333Z,1020.63
2018-03-21T03:27:23.760Z,1020.55
2018-03-21T03:28:33.704Z,1020.6
2018-03-21T03:29:43.137Z,1020.5
2018-03-21T03:30:52.829Z,1020.57
2018-03-21T03:32:02.844Z,1020.56
2018-03-21T03:33:12.649Z,1020.59
2018-03-21T03:34:22.557Z,1020.59
2018-03-21T03:35:32.283Z,1020.6
2018-03-21T03:36:41.972Z,1020.6
2018-03-21T03:37:51.913Z,1020.61
2018-03-21T03:39:01.794Z,1020.62
2018-03-21T03:40:11.513Z,1020.57
2018-03-21T03:41:21.482Z,1020.52
2018-03-21T03:42:31.447Z,1020.53
2018-03-21T03:43:41.145Z,1020.6
2018-03-21T03:44:51.098Z,1020.59
2018-03-21T03:46:00.786Z,1020.61
2018-03-21T03:47:09.967Z,1020.63
2018-03-21T03:48:19.408Z,1020.6
2018-03-21T03:49:29.363Z,1020.6
2018-03-21T03:50:39.339Z,1020.64
2018-03-21T03:51:49.058Z,1020.62
2018-03-21T03:52:59.033Z,1020.65
2018-03-21T03:54:08.990Z,1020.67
2018-03-21T03:55:18.684Z,1020.63
2018-03-21T03:56:28.141Z,1020.6
2018-03-21T03:57:37.829Z,1020.6
2018-03-21T03:58:47.775Z,1020.61
2018-03-21T03:59:57.733Z,1020.61
2018-03-21T04:01:07.173Z,1020.61
2018-03-21T04:02:17.133Z,1020.61
2018-03-21T04:03:26.820Z,1020.65
2018-03-21T04:04:36.819Z,1020.62
2018-03-21T04:05:46.261Z,1020.59
2018-03-21T04:06:55.707Z,1020.6
2018-03-21T04:08:05.675Z,1020.62
2018-03-21T04:09:15.383Z,1020.65
2018-03-21T04:10:25.360Z,1020.64
2018-03-21T04:11:35.311Z,1020.63
2018-03-21T04:12:44.746Z,1020.67
2018-03-21T04:13:54.453Z,1020.58
2018-03-21T04:15:04.156Z,1020.62
2018-03-21T04:16:13.594Z,1020.63
2018-03-21T04:17:23.564Z,1020.63
2018-03-21T04:18:33.255Z,1020.66
2018-03-21T04:19:42.695Z,1020.67
2018-03-21T04:20:52.150Z,1020.67
2018-03-21T04:22:02.123Z,1020.67
2018-03-21T04:23:12.096Z,1020.75
2018-03-21T04:24:22.359Z,1020.73
2018-03-21T04:25:32.052Z,1020.72
2018-03-21T04:26:41.744Z,1020.75
2018-03-21T04:27:51.193Z,1020.75
2018-03-21T04:29:00.893Z,1020.68
2018-03-21T04:30:10.599Z,1020.66
2018-03-21T04:31:20.570Z,1020.68
2018-03-21T04:32:30.005Z,1020.67
2018-03-21T04:33:39.964Z,1020.7
2018-03-21T04:34:49.920Z,1020.66
2018-03-21T04:35:59.620Z,1020.63
2018-03-21T04:37:09.323Z,1020.61
2018-03-21T04:38:18.757Z,1020.62
2018-03-21T04:39:28.724Z,1020.6
2018-03-21T04:40:38.677Z,1020.62
2018-03-21T04:41:48.371Z,1020.58
2018-03-21T04:42:58.332Z,1020.58
2018-03-21T04:44:08.297Z,1020.59
2018-03-21T04:45:18.501Z,1020.54
2018-03-21T04:46:28.186Z,1020.58
2018-03-21T04:47:37.880Z,1020.55
2018-03-21T04:48:47.586Z,1020.57
2018-03-21T04:49:57.541Z,1020.54
2018-03-21T04:51:07.495Z,1020.55
2018-03-21T04:52:17.220Z,1020.6
2018-03-21T04:53:26.915Z,1020.62
2018-03-21T04:54:36.876Z,1020.61
2018-03-21T04:55:46.582Z,1020.59
2018-03-21T04:56:56.022Z,1020.56
2018-03-21T04:58:05.742Z,1020.58
2018-03-21T04:59:15.690Z,1020.62
2018-03-21T05:00:25.381Z,1020.6
2018-03-21T05:01:35.331Z,1020.62
2018-03-21T05:02:45.018Z,1020.64
2018-03-21T05:03:54.981Z,1020.63
2018-03-21T05:05:04.926Z,1020.61
2018-03-21T05:06:14.621Z,1020.62
2018-03-21T05:07:24.571Z,1020.63
2018-03-21T05:08:34.280Z,1020.66
2018-03-21T05:09:44.244Z,1020.64
2018-03-21T05:10:54.188Z,1020.65
2018-03-21T05:12:04.143Z,1020.65
2018-03-21T05:13:14.088Z,1020.66
2018-03-21T05:14:24.042Z,1020.64
2018-03-21T05:15:33.731Z,1020.69
2018-03-21T05:16:43.427Z,1020.68
2018-03-21T05:17:53.117Z,1020.66
2018-03-21T05:19:03.082Z,1020.64
2018-03-21T05:20:13.045Z,1020.71
2018-03-21T05:21:23.007Z,1020.71
2018-03-21T05:22:32.962Z,1020.73
2018-03-21T05:23:42.670Z,1020.72
2018-03-21T05:24:52.377Z,1020.75
2018-03-21T05:26:02.090Z,1020.73
2018-03-21T05:27:12.040Z,1020.72
2018-03-21T05:28:22.004Z,1020.75
2018-03-21T05:29:31.976Z,1020.72
2018-03-21T05:30:41.674Z,1020.76
2018-03-21T05:31:51.634Z,1020.77
2018-03-21T05:33:01.588Z,1020.79
2018-03-21T05:34:11.295Z,1020.78
2018-03-21T05:35:20.993Z,1020.76
2018-03-21T05:36:30.692Z,1020.78
2018-03-21T05:37:40.646Z,1020.79
2018-03-21T05:38:50.078Z,1020.78
2018-03-21T05:40:00.036Z,1020.8
2018-03-21T05:41:09.747Z,1020.81
2018-03-21T05:42:19.840Z,1020.78
2018-03-21T05:43:29.552Z,1020.8
2018-03-21T05:44:39.528Z,1020.82
2018-03-21T05:45:48.967Z,1020.84
2018-03-21T05:46:58.655Z,1020.85
2018-03-21T05:48:08.115Z,1020.78
2018-03-21T05:49:18.085Z,1020.84
2018-03-21T05:50:27.534Z,1020.88
2018-03-21T05:51:37.496Z,1020.82
2018-03-21T05:52:46.935Z,1020.82
2018-03-21T05:53:56.888Z,1020.82
2018-03-21T05:55:06.607Z,1020.77
2018-03-21T05:56:16.307Z,1020.86
2018-03-21T05:57:26.019Z,1020.84
2018-03-21T05:58:35.712Z,1020.79
2018-03-21T05:59:45.465Z,1020.81
2018-03-21T06:00:55.152Z,1020.84
2018-03-21T06:02:04.594Z,1020.79
2018-03-21T06:03:14.304Z,1020.84
2018-03-21T06:04:24.293Z,1020.83
2018-03-21T06:05:33.725Z,1020.83
2018-03-21T06:06:43.687Z,1020.85
2018-03-21T06:07:52.855Z,1020.82
2018-03-21T06:09:02.835Z,1020.85
2018-03-21T06:10:12.282Z,1020.88
2018-03-21T06:11:21.739Z,1020.86
2018-03-21T06:12:31.447Z,1020.83
2018-03-21T06:13:41.147Z,1020.84
2018-03-21T06:14:50.863Z,1020.86
2018-03-21T06:16:00.580Z,1020.83
2018-03-21T06:17:10.053Z,1020.89
2018-03-21T06:18:20.035Z,1020.85
2018-03-21T06:19:30.000Z,1020.86
2018-03-21T06:20:39.696Z,1020.84
2018-03-21T06:21:49.148Z,1020.88
2018-03-21T06:22:59.203Z,1020.84
2018-03-21T06:24:08.904Z,1020.86
2018-03-21T06:25:18.366Z,1020.85
2018-03-21T06:26:28.087Z,1020.87
2018-03-21T06:27:38.040Z,1020.88
2018-03-21T06:28:47.476Z,1020.91
2018-03-21T06:29:57.164Z,1020.9
2018-03-21T06:31:07.114Z,1020.91
2018-03-21T06:32:16.544Z,1020.97
2018-03-21T06:33:26.290Z,1020.96
2018-03-21T06:34:35.984Z,1020.98
2018-03-21T06:35:45.947Z,1021
2018-03-21T06:36:55.634Z,1020.99
2018-03-21T06:38:05.634Z,1021.01
2018-03-21T06:39:15.608Z,1021.03
2018-03-21T06:40:25.557Z,1021
2018-03-21T06:41:35.008Z,1021.09
2018-03-21T06:42:44.437Z,1021
2018-03-21T06:43:53.881Z,1021.05
2018-03-21T06:45:03.591Z,1021.01
2018-03-21T06:46:13.548Z,1021.05
2018-03-21T06:47:23.517Z,1021
2018-03-21T06:48:33.285Z,1021.02
2018-03-21T06:49:43.246Z,1020.99
2018-03-21T06:50:52.681Z,1021
2018-03-21T06:52:02.400Z,1021.05
2018-03-21T06:53:11.850Z,1021.04
2018-03-21T06:54:21.291Z,1021.03
2018-03-21T06:55:30.996Z,1021.07
2018-03-21T06:56:40.173Z,1021.08
2018-03-21T06:57:50.135Z,1021.12
2018-03-21T06:59:00.096Z,1021.08
2018-03-21T07:00:09.540Z,1021.14
2018-03-21T07:01:19.264Z,1021.13
2018-03-21T07:02:29.284Z,1021.14
2018-03-21T07:03:39.079Z,1021.17
2018-03-21T07:04:48.001Z,1021.19
2018-03-21T07:05:57.965Z,1021.18
2018-03-21T07:07:07.939Z,1021.25
2018-03-21T07:08:17.655Z,1021.2
2018-03-21T07:09:27.365Z,1021.19
2018-03-21T07:10:37.084Z,1021.27
2018-03-21T07:11:47.050Z,1021.22
2018-03-21T07:12:56.755Z,1021.27
2018-03-21T07:14:06.461Z,1021.28
2018-03-21T07:15:16.174Z,1021.26
2018-03-21T07:16:25.624Z,1021.23
2018-03-21T07:17:35.366Z,1021.24
2018-03-21T07:18:45.074Z,1021.28
2018-03-21T07:19:54.789Z,1021.25
2018-03-21T07:21:04.493Z,1021.29
2018-03-21T07:22:13.928Z,1021.34
2018-03-21T07:23:23.638Z,1021.28
2018-03-21T07:24:33.351Z,1021.3
2018-03-21T07:25:43.064Z,1021.32
2018-03-21T07:26:52.302Z,1021.3
2018-03-21T07:28:02.269Z,1021.31
2018-03-21T07:29:12.246Z,1021.36
2018-03-21T07:30:21.948Z,1021.35
2018-03-21T07:31:31.715Z,1021.39
2018-03-21T07:32:41.419Z,1021.36
2018-03-21T07:33:50.586Z,1021.36
2018-03-21T07:35:00.066Z,1021.36
2018-03-21T07:36:10.044Z,1021.36
2018-03-21T07:37:20.000Z,1021.36
2018-03-21T07:38:29.993Z,1021.38
2018-03-21T07:39:39.963Z,1021.35
2018-03-21T07:40:49.689Z,1021.38
2018-03-21T07:41:59.148Z,1021.35
2018-03-21T07:43:08.848Z,1021.34
2018-03-21T07:44:18.306Z,1021.31
2018-03-21T07:45:28.213Z,1021.39
2018-03-21T07:46:37.662Z,1021.36
2018-03-21T07:47:47.372Z,1021.31
2018-03-21T07:48:57.075Z,1021.28
2018-03-21T07:50:06.545Z,1021.34
2018-03-21T07:51:16.510Z,1021.32
2018-03-21T07:52:25.962Z,1021.3
2018-03-21T07:53:35.442Z,1021.42
2018-03-21T07:54:44.918Z,1021.37
2018-03-21T07:55:54.628Z,1021.37
2018-03-21T07:57:04.607Z,1021.38
2018-03-21T07:58:14.382Z,1021.34
2018-03-21T07:59:24.378Z,1021.38
2018-03-21T08:00:34.397Z,1021.37
2018-03-21T08:01:44.423Z,1021.33
2018-03-21T08:02:54.387Z,1021.42
2018-03-21T08:04:03.827Z,1021.44
2018-03-21T08:05:13.274Z,1021.45
2018-03-21T08:06:22.712Z,1021.43
2018-03-21T08:07:32.693Z,1021.41
2018-03-21T08:08:42.663Z,1021.44
2018-03-21T08:09:52.377Z,1021.45
2018-03-21T08:11:02.354Z,1021.46
2018-03-21T08:12:12.070Z,1021.43
2018-03-21T08:13:22.031Z,1021.47
2018-03-21T08:14:31.798Z,1021.43
2018-03-21T08:15:41.302Z,1021.4
2018-03-21T08:16:51.097Z,1021.42
2018-03-21T08:18:00.479Z,1021.42
2018-03-21T08:19:10.210Z,1021.43
2018-03-21T08:20:20.221Z,1021.45
2018-03-21T08:21:30.203Z,1021.45
2018-03-21T08:22:40.245Z,1021.51
2018-03-21T08:23:49.966Z,1021.47
2018-03-21T08:24:59.915Z,1021.53
2018-03-21T08:26:10.051Z,1021.56
2018-03-21T08:27:20.030Z,1021.51
2018-03-21T08:28:30.011Z,1021.62
2018-03-21T08:29:39.974Z,1021.48
2018-03-21T08:30:49.684Z,1021.51
2018-03-21T08:31:59.687Z,1021.54
2018-03-21T08:33:09.534Z,1021.55
2018-03-21T08:34:19.270Z,1021.56
2018-03-21T08:35:29.097Z,1021.5
2018-03-21T08:36:38.295Z,1021.52
2018-03-21T08:37:48.272Z,1021.57
2018-03-21T08:38:58.249Z,1021.54
2018-03-21T08:40:07.715Z,1021.49
2018-03-21T08:41:17.698Z,1021.51
2018-03-21T08:42:27.161Z,1021.59
2018-03-21T08:43:37.171Z,1021.57
2018-03-21T08:44:47.139Z,1021.46
2018-03-21T08:45:57.120Z,1021.52
2018-03-21T08:47:06.830Z,1021.54
2018-03-21T08:48:16.542Z,1021.5
2018-03-21T08:49:26.517Z,1021.52
2018-03-21T08:50:36.281Z,1021.51
2018-03-21T08:51:46.261Z,1021.52
2018-03-21T08:52:55.758Z,1021.49
2018-03-21T08:54:05.742Z,1021.51
2018-03-21T08:55:15.741Z,1021.55
2018-03-21T08:56:25.468Z,1021.52
2018-03-21T08:57:35.180Z,1021.5
2018-03-21T08:58:44.900Z,1021.49
2018-03-21T08:59:54.606Z,1021.53
2018-03-21T09:01:04.615Z,1021.5
2018-03-21T09:02:14.349Z,1021.43
2018-03-21T09:03:24.079Z,1021.44
2018-03-21T09:04:33.793Z,1021.51
2018-03-21T09:05:43.796Z,1021.52
2018-03-21T09:06:53.823Z,1021.49
2018-03-21T09:08:03.878Z,1021.47
2018-03-21T09:09:13.643Z,1021.36
2018-03-21T09:10:23.608Z,1021.4
2018-03-21T09:11:33.597Z,1021.43
2018-03-21T09:12:43.348Z,1021.4
2018-03-21T09:13:53.065Z,1021.43
2018-03-21T09:15:02.530Z,1021.28
2018-03-21T09:16:12.556Z,1021.39
2018-03-21T09:17:22.566Z,1021.43
2018-03-21T09:18:32.552Z,1021.39
2018-03-21T09:19:42.506Z,1021.41
2018-03-21T09:20:51.976Z,1021.38
2018-03-21T09:22:01.492Z,1021.37
2018-03-21T09:23:11.478Z,1021.43
2018-03-21T09:24:21.214Z,1021.41
2018-03-21T09:25:30.969Z,1021.44
2018-03-21T09:26:40.420Z,1021.42
2018-03-21T09:27:49.885Z,1021.38
2018-03-21T09:28:59.864Z,1021.41
2018-03-21T09:30:09.841Z,1021.37
2018-03-21T09:31:19.340Z,1021.33
2018-03-21T09:32:28.812Z,1021.27
2018-03-21T09:33:38.588Z,1021.28
2018-03-21T09:34:48.600Z,1021.33
2018-03-21T09:35:58.065Z,1021.19
2018-03-21T09:37:07.897Z,1021.26
2018-03-21T09:38:17.109Z,1021.31
2018-03-21T09:39:27.091Z,1021.26
2018-03-21T09:40:36.816Z,1021.28
2018-03-21T09:41:46.279Z,1021.21
2018-03-21T09:42:55.815Z,1021.23
2018-03-21T09:44:05.871Z,1021.39
2018-03-21T09:45:15.908Z,1021.31
2018-03-21T09:46:25.708Z,1021.29
2018-03-21T09:47:35.453Z,1021.36
2018-03-21T09:48:45.480Z,1021.26
2018-03-21T09:49:55.248Z,1021.21
2018-03-21T09:51:04.983Z,1021.23
2018-03-21T09:52:14.456Z,1021.25
2018-03-21T09:53:24.479Z,1021.23
2018-03-21T09:54:34.484Z,1021.17
2018-03-21T09:55:43.715Z,1021.17
2018-03-21T09:56:53.466Z,1021.14
2018-03-21T09:58:02.938Z,1021.16
2018-03-21T09:59:12.698Z,1021.06
2018-03-21T10:00:22.688Z,1021.13
2018-03-21T10:01:32.696Z,1021.11
2018-03-21T10:02:42.680Z,1021.13
2018-03-21T10:03:52.677Z,1021.07
2018-03-21T10:05:02.695Z,1021.21
2018-03-21T10:06:12.674Z,1021.17
2018-03-21T10:07:22.676Z,1021.15
2018-03-21T10:08:32.657Z,1021.12
2018-03-21T10:09:42.697Z,1021.03
2018-03-21T10:10:52.669Z,1021.06
2018-03-21T10:12:02.685Z,1020.99
2018-03-21T10:13:12.429Z,1021.04
2018-03-21T10:14:22.471Z,1021.02
2018-03-21T10:15:32.465Z,1020.96
2018-03-21T10:16:42.494Z,1021.01
2018-03-21T10:17:52.222Z,1020.86
2018-03-21T10:19:02.237Z,1020.86
2018-03-21T10:20:12.247Z,1020.93
2018-03-21T10:21:22.236Z,1020.92
2018-03-21T10:22:32.247Z,1020.93
2018-03-21T10:23:41.961Z,1021.02
2018-03-21T10:24:51.779Z,1020.86
2018-03-21T10:26:01.764Z,1021.01
2018-03-21T10:27:11.479Z,1020.89
2018-03-21T10:28:21.204Z,1020.88
2018-03-21T10:29:31.221Z,1020.91
2018-03-21T10:30:40.673Z,1020.93
2018-03-21T10:31:50.648Z,1020.91
2018-03-21T10:33:00.658Z,1020.89
2018-03-21T10:34:10.107Z,1020.88
2018-03-21T10:35:19.838Z,1020.98
2018-03-21T10:36:29.843Z,1021.08
2018-03-21T10:37:39.889Z,1020.94
2018-03-21T10:38:49.853Z,1020.85
2018-03-21T10:39:59.836Z,1021.02
2018-03-21T10:41:09.559Z,1020.91
2018-03-21T10:42:19.529Z,1021.05
2018-03-21T10:43:29.516Z,1021.02
2018-03-21T10:44:39.485Z,1020.88
2018-03-21T10:45:49.452Z,1020.92
2018-03-21T10:46:59.254Z,1020.94
2018-03-21T10:48:08.968Z,1020.89
2018-03-21T10:49:18.947Z,1020.95
2018-03-21T10:50:28.993Z,1020.89
2018-03-21T10:51:38.976Z,1020.93
2018-03-21T10:52:48.737Z,1020.77
2018-03-21T10:53:58.719Z,1020.83
2018-03-21T10:55:08.791Z,1020.8
2018-03-21T10:56:18.787Z,1020.84
2018-03-21T10:57:28.770Z,1020.84
2018-03-21T10:58:38.735Z,1020.81
2018-03-21T10:59:48.183Z,1020.87
2018-03-21T11:00:57.916Z,1020.84
2018-03-21T11:02:07.365Z,1020.85
2018-03-21T11:03:17.117Z,1020.81
2018-03-21T11:04:27.081Z,1020.8
2018-03-21T11:05:36.825Z,1020.8
2018-03-21T11:06:46.943Z,1020.75
2018-03-21T11:07:56.397Z,1020.75
2018-03-21T11:09:06.165Z,1020.85
2018-03-21T11:10:16.143Z,1020.84
2018-03-21T11:11:25.599Z,1020.95
2018-03-21T11:12:35.590Z,1020.85
2018-03-21T11:13:45.595Z,1020.84
2018-03-21T11:14:55.560Z,1020.82
2018-03-21T11:16:05.556Z,1020.79
2018-03-21T11:17:15.551Z,1020.84
2018-03-21T11:18:25.027Z,1020.89
2018-03-21T11:19:34.732Z,1020.83
2018-03-21T11:20:44.723Z,1020.82
2018-03-21T11:21:54.460Z,1020.83
2018-03-21T11:23:04.516Z,1020.78
2018-03-21T11:24:14.273Z,1020.76
2018-03-21T11:25:24.239Z,1020.74
2018-03-21T11:26:34.313Z,1020.78
2018-03-21T11:27:44.290Z,1020.76
2018-03-21T11:28:54.282Z,1020.82
2018-03-21T11:30:04.270Z,1020.79
2018-03-21T11:31:13.721Z,1020.76
2018-03-21T11:32:23.770Z,1020.8
2018-03-21T11:33:33.749Z,1020.83
2018-03-21T11:34:43.729Z,1020.82
2018-03-21T11:35:53.716Z,1020.79
2018-03-21T11:37:03.705Z,1020.87
2018-03-21T11:38:13.158Z,1020.85
2018-03-21T11:39:23.151Z,1020.82
2018-03-21T11:40:33.126Z,1020.73
2018-03-21T11:41:42.855Z,1020.75
2018-03-21T11:42:52.823Z,1020.74
2018-03-21T11:44:02.806Z,1020.62
2018-03-21T11:45:12.794Z,1020.67
2018-03-21T11:46:22.799Z,1020.73
2018-03-21T11:47:32.795Z,1020.69
2018-03-21T11:48:42.781Z,1020.65
2018-03-21T11:49:52.756Z,1020.64
2018-03-21T11:51:02.499Z,1020.64
2018-03-21T11:52:12.612Z,1020.58
2018-03-21T11:53:22.351Z,1020.66
2018-03-21T11:54:32.101Z,1020.59
2018-03-21T11:55:42.099Z,1020.58
2018-03-21T11:56:52.099Z,1020.57
2018-03-21T11:58:02.151Z,1020.56
2018-03-21T11:59:12.256Z,1020.52
2018-03-21T12:00:21.441Z,1020.47
2018-03-21T12:01:30.921Z,1020.45
2018-03-21T12:02:40.697Z,1020.47
2018-03-21T12:03:50.775Z,1020.49
2018-03-21T12:05:00.794Z,1020.51
2018-03-21T12:06:10.958Z,1020.44
2018-03-21T12:07:20.696Z,1020.46
2018-03-21T12:08:30.432Z,1020.34
2018-03-21T12:09:40.396Z,1020.46
2018-03-21T12:10:49.853Z,1020.47
2018-03-21T12:11:59.859Z,1020.4
2018-03-21T12:13:09.561Z,1020.38
2018-03-21T12:14:19.293Z,1020.42
2018-03-21T12:15:29.270Z,1020.47
2018-03-21T12:16:39.241Z,1020.42
2018-03-21T12:17:48.973Z,1020.42
2018-03-21T12:18:59.222Z,1020.53
2018-03-21T12:20:08.951Z,1020.42
2018-03-21T12:21:18.425Z,1020.37
2018-03-21T12:22:28.134Z,1020.47
2018-03-21T12:23:37.853Z,1020.38
2018-03-21T12:24:47.833Z,1020.32
2018-03-21T12:25:57.833Z,1020.38
2018-03-21T12:27:07.557Z,1020.46
2018-03-21T12:28:17.342Z,1020.35
2018-03-21T12:29:27.328Z,1020.28
2018-03-21T12:30:37.312Z,1020.27
2018-03-21T12:31:47.023Z,1020.27
2018-03-21T12:32:56.998Z,1020.22
2018-03-21T12:34:07.022Z,1020.18
2018-03-21T12:35:16.736Z,1020.1
2018-03-21T12:36:26.947Z,1020.14
2018-03-21T12:37:36.666Z,1020.08
2018-03-21T12:38:46.665Z,1020.2
2018-03-21T12:39:56.387Z,1020.15
2018-03-21T12:41:06.103Z,1020.12
2018-03-21T12:42:15.577Z,1020.11
2018-03-21T12:43:25.043Z,1020.21
2018-03-21T12:44:34.546Z,1020.03
2018-03-21T12:45:44.966Z,1020.05
2018-03-21T12:46:54.420Z,1020.22
2018-03-21T12:48:04.162Z,1020.16
2018-03-21T12:49:13.888Z,1020.1
2018-03-21T12:50:23.619Z,1020.13
2018-03-21T12:51:33.330Z,1020.07
2018-03-21T12:52:43.332Z,1020.05
2018-03-21T12:53:52.787Z,1020.1
2018-03-21T12:55:02.768Z,1020.14
2018-03-21T12:56:12.672Z,1020.01
2018-03-21T12:57:23.531Z,1020.17
2018-03-21T12:58:33.513Z,1020.1
2018-03-21T12:59:43.494Z,1020.17
2018-03-21T13:00:53.477Z,1020.12
2018-03-21T13:02:02.951Z,1020.05
2018-03-21T13:03:12.952Z,1020.14
2018-03-21T13:04:23.093Z,1020.09
2018-03-21T13:05:33.073Z,1020.01
2018-03-21T13:06:42.778Z,1019.99
2018-03-21T13:07:51.986Z,1020.01
2018-03-21T13:09:01.756Z,1019.97
2018-03-21T13:10:11.730Z,1020
2018-03-21T13:11:21.456Z,1020.01
2018-03-21T13:12:31.423Z,1020.06
2018-03-21T13:13:41.139Z,1019.98
2018-03-21T13:14:51.129Z,1020.08
2018-03-21T13:16:00.590Z,1019.99
2018-03-21T13:17:10.634Z,1020.01
2018-03-21T13:18:20.615Z,1019.91
2018-03-21T13:19:30.638Z,1019.94
2018-03-21T13:20:40.363Z,1019.89
2018-03-21T13:21:49.873Z,1019.81
2018-03-21T13:22:59.608Z,1019.85
2018-03-21T13:24:09.529Z,1019.9
2018-03-21T13:25:19.513Z,1019.88
2018-03-21T13:26:29.218Z,1019.83
2018-03-21T13:27:38.938Z,1019.82
2018-03-21T13:28:48.907Z,1019.84
2018-03-21T13:29:57.840Z,1019.72
2018-03-21T13:31:07.636Z,1019.75
2018-03-21T13:32:17.620Z,1019.81
2018-03-21T13:33:27.603Z,1019.89
2018-03-21T13:34:37.333Z,1019.86
2018-03-21T13:35:47.043Z,1019.78
2018-03-21T13:36:57.005Z,1019.73
2018-03-21T13:38:06.733Z,1019.74
2018-03-21T13:39:16.718Z,1019.75
2018-03-21T13:40:26.443Z,1019.73
2018-03-21T13:41:36.419Z,1019.76
2018-03-21T13:42:46.447Z,1019.66
2018-03-21T13:43:56.422Z,1019.8
2018-03-21T13:45:06.143Z,1019.84
2018-03-21T13:46:16.180Z,1019.74
2018-03-21T13:47:26.008Z,1019.89
2018-03-21T13:48:35.985Z,1019.88
2018-03-21T13:49:45.954Z,1019.88
2018-03-21T13:50:55.687Z,1019.86
2018-03-21T13:52:05.679Z,1019.78
2018-03-21T13:53:15.401Z,1019.81
2018-03-21T13:54:25.113Z,1019.77
2018-03-21T13:55:35.106Z,1019.84
2018-03-21T13:56:44.814Z,1019.87
2018-03-21T13:57:54.797Z,1019.9
2018-03-21T13:59:04.529Z,1019.94
2018-03-21T14:00:14.513Z,1019.91
2018-03-21T14:01:24.225Z,1019.87
2018-03-21T14:02:33.415Z,1019.9
2018-03-21T14:03:43.205Z,1019.91
2018-03-21T14:04:53.203Z,1019.78
2018-03-21T14:06:03.017Z,1019.83
2018-03-21T14:07:13.006Z,1019.85